Woodbridge, California
Current Conditions -  °F | °C
As of 12:55 PM on Tuesday 27 Jan 2015 (Local Time) from KSCK Reporting Station
Clear Clear  
Wind Chill: 65°   Ceiling: Unl
Heat Index: 65°   Visibility: 10mi
Dew Point: 51°   Wind: 10mph
Humidity: 61%   Direction: 170°S
Pressure: 30.19"   Gusts: NA
Location:  38.15°N, 121.3°W
Report Text: KSCK 272055Z 17009KT 10SM CLR 18/11 A3019 RMK AO2 SLP221 T01830106 58003
Loading
Personal Weather Stations






























Interactive Weather Map New forecast layout! Learn more

10-Day Weather Forecast

Advertisements
Track Severe Weather on mobile